< < Back
Terminal Aerodrome Forecast


Current Version              Previous Versions:   1  2  3  4  5  6  7  8  9  

Terminal Aerodrome Forecast

777
FTUS44 KMRX 231723
TAFCHA
TAF
KCHA 231723Z 2318/2418 15006KT P6SM SCT150
     FM240000 00000KT P6SM SKC
     FM241500 14010KT P6SM SKC=

Latest METAR

612
SAUS80 KWBC 242100 CCA
MTRCHA
METAR KCHA 242053Z 12010KT 10SM SCT050 BKN060 BKN250 28/15 A3020 RMK AO2
SLP222 T02780150 58022 $


USA.gov is the U.S. government's official web portal to all federal, state and local government web resources and services.